aviador You're here:

LEVC Decoded Metar

VALENCIA in SPAIN
Report Time2016-07-01 22:00:00
UTC Time2016-07-01 22:21:50
Flight Rules vfr VFR
Wind100° at 03 kt
W.Decomp.*RWY 12: 2.8 kt HW 1 kt LCW
W.Rank100° ranks 18
Current wind is below 100° avg. (7.0)
Visibility9999 m
Phenomena:N/A
Clouds:Few 020 Hf
Expected CloudBase > 1,600 ft AGL from Temp-Dew spread
CeilingNone
Temp25°C (ISA +10)
Dew Point21°C (79% RH)
QNH1017 hPa
Density Alt1,601 ft
Elevation203 ft
Report Wrong Elevation
Raw Report
METAR LEVC 012200Z 10003KT 070V130 9999 FEW020 25/21 Q1017 NOSIG=

Extra information for LEVC:More info

Metar Taf Metar & Taf Last 4 Metars F.Rules Stats Wind Profile Meteogram Temp Stats Airport Information Weather charts Add Link Nearby VenuesMetar ALERT Operation Metar Decoded Social comments

Webcam Valencia